SCFS weather

Los Calafates Airport
Chonchi, Los Lagos Region, Chile

Public forecast

Using degrees Celsius for public forecast. Weather courtesy of forecast.io.

Closest aviation weather report (METAR) to Los Calafates Airport

Closest report is Mocopulli Airport, 21.8 nm (40.5 km) NNE. Retrieved 2019/10/22 15:00 UTC (13 minutes ago):

SCPQ 221500Z 18012KT 140V210 9999 BKN030 11/04 Q1025

Closest aviation forecast (TAF) to Los Calafates Airport

Closest forecast is Mocopulli Airport, 21.8 nm (40.5 km) NNE. Retrieved 2019/10/22 12:00 UTC (3 hours ago):

TAF SCPQ 221019Z 2212/2224 21005KT CAVOK TN01/2212Z TX13/2219Z BECMG 2216/2224 24010KT BECMG 2219/2221 23005KT